createdAt,value
2022-10-18T00:00:02.122Z,8.43
2022-10-18T00:02:28.769Z,8.82
2022-10-18T00:04:55.244Z,8.32
2022-10-18T00:07:21.695Z,9.18
2022-10-18T00:09:48.135Z,8.55
2022-10-18T00:12:17.630Z,8.93
2022-10-18T00:14:44.073Z,8.75
2022-10-18T00:17:10.506Z,8.65
2022-10-18T00:19:37.074Z,8.25
2022-10-18T00:22:03.614Z,8.25
2022-10-18T00:24:30.296Z,9.00
2022-10-18T00:26:59.047Z,8.48
2022-10-18T00:29:25.495Z,8.65
2022-10-18T00:31:51.898Z,8.35
2022-10-18T00:34:18.236Z,8.95
2022-10-18T00:36:45.375Z,8.73
2022-10-18T00:39:17.405Z,8.73
2022-10-18T00:41:43.826Z,8.80
2022-10-18T00:44:13.230Z,8.27
2022-10-18T00:46:41.954Z,8.32
2022-10-18T00:49:19.060Z,8.73
2022-10-18T00:51:50.096Z,8.70
2022-10-18T00:54:18.083Z,8.85
2022-10-18T00:56:45.175Z,8.48
2022-10-18T00:59:14.697Z,8.05
2022-10-18T01:01:41.168Z,8.52
2022-10-18T01:04:07.866Z,8.07
2022-10-18T01:06:50.324Z,8.27
2022-10-18T01:09:54.927Z,7.97
2022-10-18T01:12:28.408Z,8.30
2022-10-18T01:15:06.661Z,8.90
2022-10-18T01:17:43.791Z,8.88
2022-10-18T01:20:28.481Z,8.23
2022-10-18T01:23:15.811Z,7.88
2022-10-18T01:25:55.767Z,8.68
2022-10-18T01:28:43.323Z,7.70
2022-10-18T01:31:21.338Z,8.23
2022-10-18T01:33:53.743Z,8.48
2022-10-18T01:36:34.532Z,8.45
2022-10-18T01:39:06.110Z,8.32
2022-10-18T01:41:35.674Z,8.70
2022-10-18T01:44:04.275Z,9.40
2022-10-18T01:46:31.204Z,7.93
2022-10-18T01:48:58.171Z,8.57
2022-10-18T01:51:30.111Z,8.60
2022-10-18T01:53:56.965Z,9.10
2022-10-18T01:56:27.073Z,8.65
2022-10-18T01:58:56.219Z,8.48
2022-10-18T02:01:40.051Z,7.68
2022-10-18T02:04:22.970Z,8.43
2022-10-18T02:06:58.601Z,8.70
2022-10-18T02:09:35.136Z,9.10
2022-10-18T02:12:03.229Z,8.80
2022-10-18T02:14:30.411Z,9.43
2022-10-18T02:17:01.403Z,9.05
2022-10-18T02:19:49.297Z,8.75
2022-10-18T02:22:17.082Z,8.32
2022-10-18T02:24:51.418Z,8.73
2022-10-18T02:27:18.362Z,8.00
2022-10-18T02:29:45.854Z,8.48
2022-10-18T02:32:27.812Z,8.35
2022-10-18T02:35:06.354Z,8.15
2022-10-18T02:37:36.854Z,8.13
2022-10-18T02:40:05.640Z,8.02
2022-10-18T02:42:49.860Z,8.38
2022-10-18T02:45:17.232Z,8.43
2022-10-18T02:47:43.674Z,8.55
2022-10-18T02:50:10.241Z,8.52
2022-10-18T02:52:39.750Z,8.05
2022-10-18T02:55:07.133Z,8.15
2022-10-18T02:57:34.050Z,7.72
2022-10-18T03:00:00.630Z,7.88
2022-10-18T03:02:27.218Z,7.60
2022-10-18T03:04:53.586Z,7.85
2022-10-18T03:07:19.962Z,7.53
2022-10-18T03:09:46.383Z,8.32
2022-10-18T03:12:12.859Z,8.90
2022-10-18T03:14:39.290Z,8.50
2022-10-18T03:17:05.625Z,7.45
2022-10-18T03:19:32.001Z,7.45
2022-10-18T03:21:58.483Z,7.70
2022-10-18T03:24:24.908Z,7.72
2022-10-18T03:26:51.340Z,8.90
2022-10-18T03:29:17.714Z,8.65
2022-10-18T03:31:44.281Z,8.23
2022-10-18T03:34:10.618Z,8.48
2022-10-18T03:36:38.612Z,8.30
2022-10-18T03:39:24.255Z,8.48
2022-10-18T03:41:50.843Z,8.40
2022-10-18T03:44:17.388Z,8.25
2022-10-18T03:46:43.809Z,8.23
2022-10-18T03:49:10.375Z,8.65
2022-10-18T03:51:36.730Z,8.23
2022-10-18T03:54:03.320Z,8.30
2022-10-18T03:56:29.753Z,8.25
2022-10-18T03:58:57.049Z,7.82
2022-10-18T04:01:23.519Z,8.77
2022-10-18T04:03:49.970Z,7.95
2022-10-18T04:06:16.473Z,8.00
2022-10-18T04:08:42.820Z,8.18
2022-10-18T04:11:11.036Z,7.35
2022-10-18T04:13:37.439Z,7.32
2022-10-18T04:16:04.374Z,8.52
2022-10-18T04:18:30.862Z,8.13
2022-10-18T04:20:57.309Z,7.20
2022-10-18T04:23:23.667Z,7.43
2022-10-18T04:25:50.054Z,6.75
2022-10-18T04:28:16.433Z,7.43
2022-10-18T04:30:42.785Z,7.15
2022-10-18T04:33:09.233Z,7.07
2022-10-18T04:35:36.173Z,6.88
2022-10-18T04:38:02.559Z,7.22
2022-10-18T04:40:28.962Z,7.47
2022-10-18T04:42:55.764Z,7.30
2022-10-18T04:45:22.254Z,7.50
2022-10-18T04:47:48.632Z,7.25
2022-10-18T04:50:15.063Z,7.22
2022-10-18T04:52:41.468Z,7.43
2022-10-18T04:55:08.275Z,7.32
2022-10-18T04:57:34.949Z,6.82
2022-10-18T05:00:01.996Z,6.97
2022-10-18T05:02:28.475Z,5.50
2022-10-18T05:04:54.977Z,7.18
2022-10-18T05:07:21.401Z,6.70
2022-10-18T05:09:47.830Z,7.25
2022-10-18T05:12:14.267Z,6.93
2022-10-18T05:14:40.773Z,7.45
2022-10-18T05:17:07.238Z,6.85
2022-10-18T05:19:33.875Z,6.70
2022-10-18T05:22:00.341Z,7.30
2022-10-18T05:24:27.807Z,7.32
2022-10-18T05:26:54.325Z,7.60
2022-10-18T05:29:20.869Z,7.22
2022-10-18T05:31:48.952Z,7.28
2022-10-18T05:34:15.843Z,7.30
2022-10-18T05:36:43.659Z,7.20
2022-10-18T05:39:10.187Z,7.43
2022-10-18T05:41:36.709Z,8.50
2022-10-18T05:44:05.080Z,7.20
2022-10-18T05:46:31.937Z,7.53
2022-10-18T05:48:58.401Z,7.15
2022-10-18T05:51:25.031Z,7.35
2022-10-18T05:53:52.867Z,10.88
2022-10-18T05:56:19.232Z,6.90
2022-10-18T05:58:51.667Z,7.28
2022-10-18T06:01:18.863Z,6.90
2022-10-18T06:03:45.248Z,6.88
2022-10-18T06:06:13.244Z,7.55
2022-10-18T06:08:41.454Z,7.22
2022-10-18T06:11:16.707Z,7.20
2022-10-18T06:13:45.125Z,6.93
2022-10-18T06:16:13.099Z,6.90
2022-10-18T06:18:39.775Z,7.07
2022-10-18T06:21:06.815Z,9.10
2022-10-18T06:23:33.271Z,7.65
2022-10-18T06:26:07.774Z,7.57
2022-10-18T06:28:35.985Z,7.53
2022-10-18T06:31:03.584Z,7.10
2022-10-18T06:33:35.142Z,7.13
2022-10-18T06:36:07.056Z,7.75
2022-10-18T06:38:34.514Z,7.40
2022-10-18T06:41:00.967Z,7.57
2022-10-18T06:43:27.583Z,7.10
2022-10-18T06:45:54.403Z,6.78
2022-10-18T06:48:22.097Z,7.03
2022-10-18T06:50:57.181Z,7.15
2022-10-18T06:53:25.106Z,7.43
2022-10-18T06:55:51.528Z,7.53
2022-10-18T06:58:17.991Z,7.25
2022-10-18T07:00:45.373Z,7.30
2022-10-18T07:03:12.230Z,7.60
2022-10-18T07:05:38.643Z,6.93
2022-10-18T07:08:05.252Z,6.97
2022-10-18T07:10:31.684Z,6.93
2022-10-18T07:13:13.617Z,6.90
2022-10-18T07:15:44.641Z,7.05
2022-10-18T07:18:11.447Z,7.40
2022-10-18T07:20:38.195Z,7.65
2022-10-18T07:23:08.513Z,7.40
2022-10-18T07:25:36.597Z,8.20
2022-10-18T07:28:03.559Z,7.70
2022-10-18T07:30:30.110Z,7.50
2022-10-18T07:32:56.884Z,7.40
2022-10-18T07:35:23.564Z,10.98
2022-10-18T07:37:50.013Z,7.57
2022-10-18T07:40:16.533Z,7.00
2022-10-18T07:42:42.991Z,6.47
2022-10-18T07:45:10.431Z,7.13
2022-10-18T07:47:37.556Z,7.55
2022-10-18T07:50:04.389Z,7.32
2022-10-18T07:52:30.829Z,6.90
2022-10-18T07:54:57.733Z,6.47
2022-10-18T07:57:30.209Z,6.90
2022-10-18T07:59:57.314Z,6.72
2022-10-18T08:02:24.296Z,6.70
2022-10-18T08:04:50.829Z,5.70
2022-10-18T08:07:17.572Z,6.35
2022-10-18T08:09:44.103Z,6.35
2022-10-18T08:12:10.844Z,6.43
2022-10-18T08:14:37.453Z,5.85
2022-10-18T08:17:07.056Z,5.78
2022-10-18T08:19:35.441Z,6.10
2022-10-18T08:22:01.925Z,6.40
2022-10-18T08:24:28.410Z,5.85
2022-10-18T08:26:54.863Z,6.38
2022-10-18T08:29:24.987Z,5.07
2022-10-18T08:31:53.878Z,5.30
2022-10-18T08:34:20.577Z,5.15
2022-10-18T08:36:47.267Z,5.75
2022-10-18T08:39:14.707Z,5.32
2022-10-18T08:41:46.585Z,6.00
2022-10-18T08:44:19.191Z,5.18
2022-10-18T08:46:58.683Z,5.10
2022-10-18T08:49:30.765Z,5.63
2022-10-18T08:51:58.124Z,5.03
2022-10-18T08:54:27.604Z,6.22
2022-10-18T08:57:01.754Z,5.72
2022-10-18T08:59:39.101Z,6.53
2022-10-18T09:02:13.115Z,7.05
2022-10-18T09:04:52.537Z,5.65
2022-10-18T09:07:45.609Z,5.75
2022-10-18T09:10:31.035Z,5.85
2022-10-18T09:13:35.075Z,5.60
2022-10-18T09:16:07.750Z,6.00
2022-10-18T09:18:53.389Z,6.32
2022-10-18T09:21:29.383Z,6.10
2022-10-18T09:24:12.568Z,6.10
2022-10-18T09:29:31.769Z,5.78
2022-10-18T09:32:24.865Z,5.93
2022-10-18T09:35:11.984Z,5.75
2022-10-18T09:37:39.423Z,5.85
2022-10-18T09:40:20.210Z,6.40
2022-10-18T09:43:01.560Z,5.95
2022-10-18T09:45:33.128Z,6.50
2022-10-18T09:48:15.701Z,5.80
2022-10-18T09:50:50.555Z,5.35
2022-10-18T09:53:39.163Z,5.90
2022-10-18T09:56:29.848Z,6.15
2022-10-18T09:58:56.545Z,6.15
2022-10-18T10:01:29.035Z,5.82
2022-10-18T10:03:55.842Z,6.25
2022-10-18T10:06:42.368Z,5.43
2022-10-18T10:09:16.592Z,6.82
2022-10-18T10:11:48.760Z,6.28
2022-10-18T10:17:25.092Z,6.15
2022-10-18T10:20:04.461Z,6.05
2022-10-18T10:22:40.059Z,5.93
2022-10-18T10:25:07.635Z,5.30
2022-10-18T10:27:45.589Z,4.03
2022-10-18T10:30:36.850Z,4.10
2022-10-18T10:33:05.111Z,3.72
2022-10-18T10:35:55.279Z,4.53
2022-10-18T10:38:27.251Z,3.97
2022-10-18T10:40:54.491Z,3.90
2022-10-18T10:43:42.244Z,4.00
2022-10-18T10:46:12.890Z,3.65
2022-10-18T10:48:41.997Z,4.03
2022-10-18T10:51:11.001Z,17.35
2022-10-18T10:53:43.322Z,4.68
2022-10-18T10:56:37.450Z,4.07
2022-10-18T10:59:15.732Z,3.80
2022-10-18T11:01:42.505Z,3.80
2022-10-18T11:04:31.005Z,3.92
2022-10-18T11:07:16.639Z,4.10
2022-10-18T11:10:08.886Z,4.13
2022-10-18T11:12:45.089Z,3.78
2022-10-18T11:15:14.278Z,4.97
2022-10-18T11:18:05.476Z,5.20
2022-10-18T11:20:45.016Z,5.18
2022-10-18T11:23:13.714Z,5.70
2022-10-18T11:26:00.814Z,5.38
2022-10-18T11:28:36.383Z,5.70
2022-10-18T11:31:11.896Z,5.57
2022-10-18T11:34:08.771Z,5.70
2022-10-18T11:37:16.002Z,5.93
2022-10-18T11:40:10.298Z,6.40
2022-10-18T11:43:06.410Z,5.65
2022-10-18T11:45:45.791Z,5.20
2022-10-18T11:48:36.533Z,7.13
2022-10-18T11:51:03.029Z,5.22
2022-10-18T11:53:50.928Z,6.63
2022-10-18T11:56:43.150Z,6.78
2022-10-18T11:59:48.295Z,6.60
2022-10-18T12:02:47.982Z,5.53
2022-10-18T12:05:23.959Z,6.15
2022-10-18T12:08:15.456Z,5.13
2022-10-18T12:11:04.023Z,5.68
2022-10-18T12:13:48.929Z,5.30
2022-10-18T12:16:16.357Z,6.50
2022-10-18T12:21:25.362Z,6.05
2022-10-18T12:24:11.156Z,8.00
2022-10-18T12:26:38.554Z,10.52
2022-10-18T12:29:36.959Z,6.25
2022-10-18T12:32:10.533Z,13.30
2022-10-18T12:34:49.275Z,5.70
2022-10-18T12:37:36.773Z,5.70
2022-10-18T12:40:21.301Z,5.50
2022-10-18T12:42:50.279Z,5.78
2022-10-18T12:45:35.485Z,6.10
2022-10-18T12:48:07.518Z,7.05
2022-10-18T12:51:05.501Z,6.40
2022-10-18T12:53:33.694Z,5.40
2022-10-18T12:56:28.298Z,7.13
2022-10-18T12:59:17.005Z,12.02
2022-10-18T13:01:55.659Z,5.90
2022-10-18T13:04:28.495Z,5.90
2022-10-18T13:06:57.861Z,5.78
2022-10-18T13:09:35.899Z,6.10
2022-10-18T13:12:11.393Z,6.32
2022-10-18T13:15:12.535Z,5.43
2022-10-18T13:17:59.401Z,5.72
2022-10-18T13:20:45.743Z,5.90
2022-10-18T13:23:50.048Z,5.95
2022-10-18T13:26:31.937Z,6.35
2022-10-18T13:29:07.379Z,5.78
2022-10-18T13:31:47.246Z,6.85
2022-10-18T13:34:35.289Z,6.32
2022-10-18T13:37:18.852Z,6.25
2022-10-18T13:42:15.051Z,6.00
2022-10-18T13:44:43.705Z,5.18
2022-10-18T13:47:33.641Z,5.50
2022-10-18T13:50:20.151Z,5.43
2022-10-18T13:53:05.338Z,5.50
2022-10-18T13:56:06.900Z,5.50
2022-10-18T13:59:13.142Z,5.50
2022-10-18T14:02:02.322Z,5.70
2022-10-18T14:05:16.611Z,6.60
2022-10-18T14:07:51.581Z,4.65
2022-10-18T14:10:43.811Z,5.22
2022-10-18T14:13:22.928Z,4.53
2022-10-18T14:15:58.721Z,4.47
2022-10-18T14:18:32.791Z,5.07
2022-10-18T14:21:14.622Z,4.75
2022-10-18T14:23:47.314Z,4.40
2022-10-18T14:26:17.013Z,4.00
2022-10-18T14:29:00.675Z,4.50
2022-10-18T14:31:31.362Z,4.13
2022-10-18T14:36:47.567Z,4.60
2022-10-18T14:39:22.138Z,3.92
2022-10-18T14:41:51.531Z,5.75
2022-10-18T14:44:29.096Z,3.92
2022-10-18T14:46:55.947Z,4.10
2022-10-18T14:49:22.621Z,3.85
2022-10-18T14:51:52.866Z,5.22
2022-10-18T14:54:26.107Z,4.03
2022-10-18T14:56:56.392Z,4.75
2022-10-18T14:59:35.833Z,4.45
2022-10-18T15:02:12.810Z,10.32
2022-10-18T15:04:39.389Z,6.75
2022-10-18T15:07:08.707Z,4.45
2022-10-18T15:09:40.291Z,4.10
2022-10-18T15:12:07.619Z,4.15
2022-10-18T15:14:35.411Z,7.20
2022-10-18T15:17:07.405Z,4.07
2022-10-18T15:19:36.768Z,4.18
2022-10-18T15:22:30.696Z,4.20
2022-10-18T15:25:05.480Z,5.68
2022-10-18T15:27:36.066Z,5.07
2022-10-18T15:30:16.622Z,5.57
2022-10-18T15:33:01.353Z,4.90
2022-10-18T15:35:31.011Z,4.38
2022-10-18T15:38:02.665Z,4.45
2022-10-18T15:40:33.787Z,5.07
2022-10-18T15:43:05.926Z,5.50
2022-10-18T15:45:45.476Z,6.28
2022-10-18T15:48:18.515Z,4.78
2022-10-18T15:50:49.447Z,5.15
2022-10-18T15:53:25.505Z,4.28
2022-10-18T15:55:57.820Z,4.30
2022-10-18T15:58:39.161Z,4.55
2022-10-18T16:01:14.432Z,4.90
2022-10-18T16:03:41.732Z,3.95
2022-10-18T16:06:18.076Z,4.55
2022-10-18T16:08:56.675Z,4.32
2022-10-18T16:11:25.914Z,4.30
2022-10-18T16:13:56.391Z,4.50
2022-10-18T16:16:28.455Z,4.57
2022-10-18T16:18:59.181Z,4.53
2022-10-18T16:21:32.567Z,4.85
2022-10-18T16:23:59.190Z,7.80
2022-10-18T16:26:27.583Z,5.25
2022-10-18T16:28:55.261Z,6.43
2022-10-18T16:31:28.967Z,6.70
2022-10-18T16:33:56.909Z,6.47
2022-10-18T16:36:29.130Z,6.25
2022-10-18T16:38:57.615Z,7.72
2022-10-18T16:41:24.945Z,6.65
2022-10-18T16:43:54.832Z,9.82
2022-10-18T16:46:24.244Z,6.85
2022-10-18T16:48:51.815Z,5.75
2022-10-18T16:51:18.757Z,5.65
2022-10-18T16:53:46.580Z,6.22
2022-10-18T16:56:22.130Z,7.15
2022-10-18T16:58:48.929Z,5.35
2022-10-18T17:01:17.691Z,5.95
2022-10-18T17:03:45.041Z,7.57
2022-10-18T17:06:18.297Z,6.30
2022-10-18T17:08:45.599Z,6.43
2022-10-18T17:11:14.008Z,5.60
2022-10-18T17:13:41.149Z,5.43
2022-10-18T17:16:13.727Z,6.20
2022-10-18T17:18:40.241Z,6.05
2022-10-18T17:21:06.894Z,6.22
2022-10-18T17:23:34.153Z,6.43
2022-10-18T17:26:06.908Z,6.13
2022-10-18T17:28:36.402Z,5.85
2022-10-18T17:31:07.166Z,6.15
2022-10-18T17:33:34.019Z,6.47
2022-10-18T17:36:00.554Z,7.90
2022-10-18T17:38:28.071Z,7.20
2022-10-18T17:40:54.621Z,6.90
2022-10-18T17:43:21.310Z,7.20
2022-10-18T17:45:49.011Z,7.30
2022-10-18T17:48:15.572Z,7.82
2022-10-18T17:50:42.266Z,7.47
2022-10-18T17:53:10.689Z,7.68
2022-10-18T17:55:37.537Z,9.45
2022-10-18T17:58:04.036Z,8.48
2022-10-18T18:00:30.586Z,8.25
2022-10-18T18:02:58.638Z,7.93
2022-10-18T18:05:25.536Z,7.03
2022-10-18T18:07:52.214Z,6.95
2022-10-18T18:10:22.053Z,6.95
2022-10-18T18:12:48.727Z,6.47
2022-10-18T18:15:15.715Z,7.07
2022-10-18T18:17:58.214Z,7.20
2022-10-18T18:20:25.898Z,7.30
2022-10-18T18:22:52.501Z,7.45
2022-10-18T18:25:19.243Z,8.40
2022-10-18T18:27:45.992Z,7.30
2022-10-18T18:30:12.654Z,8.25
2022-10-18T18:32:39.163Z,7.68
2022-10-18T18:35:06.093Z,6.93
2022-10-18T18:37:35.796Z,7.57
2022-10-18T18:40:02.454Z,6.78
2022-10-18T18:42:28.957Z,7.70
2022-10-18T18:44:55.632Z,7.50
2022-10-18T18:47:23.532Z,7.80
2022-10-18T18:49:51.664Z,7.30
2022-10-18T18:52:18.484Z,12.77
2022-10-18T18:54:45.131Z,7.60
2022-10-18T18:57:11.722Z,8.80
2022-10-18T18:59:38.242Z,21.73
2022-10-18T19:02:04.703Z,8.45
2022-10-18T19:04:31.389Z,9.20
2022-10-18T19:06:57.924Z,7.32
2022-10-18T19:09:26.504Z,8.73
2022-10-18T19:11:55.509Z,11.38
2022-10-18T19:14:24.688Z,8.85
2022-10-18T19:16:54.642Z,9.82
2022-10-18T19:19:23.467Z,10.55
2022-10-18T19:21:59.364Z,19.40
2022-10-18T19:24:28.287Z,26.58
2022-10-18T19:26:57.609Z,12.07
2022-10-18T19:29:29.181Z,13.00
2022-10-18T19:31:58.074Z,11.25
2022-10-18T19:34:27.233Z,9.52
2022-10-18T19:36:54.328Z,9.25
2022-10-18T19:39:26.330Z,12.05
2022-10-18T19:41:56.722Z,9.50
2022-10-18T19:44:25.105Z,8.55
2022-10-18T19:46:51.990Z,8.38
2022-10-18T19:49:18.476Z,7.78
2022-10-18T19:51:45.623Z,8.07
2022-10-18T19:54:13.902Z,7.40
2022-10-18T19:56:44.122Z,6.97
2022-10-18T19:59:12.255Z,7.50
2022-10-18T20:01:38.779Z,6.80
2022-10-18T20:04:07.241Z,12.00
2022-10-18T20:06:34.718Z,6.90
2022-10-18T20:09:01.976Z,7.30
2022-10-18T20:11:29.708Z,6.88
2022-10-18T20:13:56.669Z,7.18
2022-10-18T20:16:28.460Z,7.50
2022-10-18T20:19:00.006Z,7.35
2022-10-18T20:21:28.419Z,8.30
2022-10-18T20:23:55.664Z,7.57
2022-10-18T20:26:22.722Z,7.18
2022-10-18T20:28:57.379Z,9.02
2022-10-18T20:31:26.900Z,8.85
2022-10-18T20:33:56.120Z,8.05
2022-10-18T20:36:22.594Z,8.75
2022-10-18T20:38:49.591Z,9.55
2022-10-18T20:41:19.039Z,8.27
2022-10-18T20:43:50.613Z,8.38
2022-10-18T20:46:17.019Z,9.85
2022-10-18T20:48:43.503Z,8.35
2022-10-18T20:51:12.759Z,7.05
2022-10-18T20:53:40.216Z,7.63
2022-10-18T20:56:12.153Z,7.18
2022-10-18T20:58:40.570Z,8.07
2022-10-18T21:01:21.926Z,6.38
2022-10-18T21:07:30.982Z,7.10
2022-10-18T21:09:57.768Z,6.78
2022-10-18T21:12:25.533Z,6.38
2022-10-18T21:15:20.267Z,6.20
2022-10-18T21:17:51.213Z,6.30
2022-10-18T21:20:18.124Z,6.65
2022-10-18T21:22:44.719Z,6.90
2022-10-18T21:25:11.277Z,6.50
2022-10-18T21:27:37.787Z,7.50
2022-10-18T21:30:04.767Z,7.75
2022-10-18T21:32:31.598Z,7.43
2022-10-18T21:34:58.171Z,8.00
2022-10-18T21:37:24.652Z,6.93
2022-10-18T21:39:51.271Z,7.38
2022-10-18T21:42:26.987Z,8.35
2022-10-18T21:44:53.348Z,8.27
2022-10-18T21:47:19.714Z,7.53
2022-10-18T21:49:46.256Z,7.22
2022-10-18T21:52:12.655Z,7.18
2022-10-18T21:54:39.137Z,8.00
2022-10-18T21:57:05.577Z,8.18
2022-10-18T21:59:32.367Z,8.30
2022-10-18T22:02:01.201Z,8.32
2022-10-18T22:04:27.799Z,7.78
2022-10-18T22:06:54.416Z,8.43
2022-10-18T22:09:39.409Z,8.65
2022-10-18T22:12:06.248Z,8.82
2022-10-18T22:14:34.588Z,8.90
2022-10-18T22:17:01.340Z,9.10
2022-10-18T22:19:27.935Z,8.70
2022-10-18T22:21:54.338Z,9.57
2022-10-18T22:24:20.883Z,9.23
2022-10-18T22:26:47.488Z,9.00
2022-10-18T22:29:19.663Z,11.63
2022-10-18T22:31:52.159Z,10.25
2022-10-18T22:34:24.407Z,9.18
2022-10-18T22:36:50.823Z,8.35
2022-10-18T22:39:17.654Z,8.02
2022-10-18T22:41:44.211Z,8.23
2022-10-18T22:44:12.950Z,7.43
2022-10-18T22:46:40.243Z,7.00
2022-10-18T22:49:07.532Z,7.25
2022-10-18T22:54:02.003Z,8.30
2022-10-18T22:56:28.479Z,10.23
2022-10-18T22:58:55.387Z,10.00
2022-10-18T23:01:23.829Z,10.75
2022-10-18T23:04:00.969Z,8.30
2022-10-18T23:06:30.758Z,11.77
2022-10-18T23:08:59.134Z,10.10
2022-10-18T23:11:27.488Z,8.27
2022-10-18T23:13:54.347Z,7.85
2022-10-18T23:16:21.007Z,8.63
2022-10-18T23:18:55.236Z,10.68
2022-10-18T23:21:24.124Z,7.50
2022-10-18T23:23:51.449Z,7.15
2022-10-18T23:26:20.745Z,7.53
2022-10-18T23:28:48.895Z,7.15
2022-10-18T23:35:21.687Z,8.07
2022-10-18T23:37:48.132Z,7.20
2022-10-18T23:40:14.596Z,9.63
2022-10-18T23:42:40.972Z,7.45
2022-10-18T23:45:08.010Z,10.75
2022-10-18T23:47:34.716Z,6.30
2022-10-18T23:50:01.512Z,6.15
2022-10-18T23:52:27.911Z,6.75
2022-10-18T23:54:54.305Z,7.15
2022-10-18T23:57:20.772Z,10.98
2022-10-18T23:59:47.151Z,18.55
